createdAt,value
2023-02-06T00:02:05.405Z,46.30
2023-02-06T00:04:52.052Z,47.60
2023-02-06T00:07:38.549Z,47.70
2023-02-06T00:10:25.358Z,48.10
2023-02-06T00:13:11.604Z,53.10
2023-02-06T00:15:58.443Z,52.00
2023-02-06T00:18:45.334Z,58.30
2023-02-06T00:21:31.758Z,57.90
2023-02-06T00:24:18.001Z,57.10
2023-02-06T00:27:04.251Z,57.80
2023-02-06T00:29:50.902Z,54.50
2023-02-06T00:32:37.340Z,52.30
2023-02-06T00:35:24.555Z,52.30
2023-02-06T00:38:11.534Z,55.50
2023-02-06T00:40:58.039Z,52.40
2023-02-06T00:43:44.347Z,56.10
2023-02-06T00:46:32.662Z,54.90
2023-02-06T00:49:19.316Z,56.10
2023-02-06T00:52:05.582Z,57.10
2023-02-06T00:54:52.352Z,54.20
2023-02-06T00:57:39.220Z,57.90
2023-02-06T01:00:27.413Z,56.00
2023-02-06T01:03:14.261Z,52.20
2023-02-06T01:06:00.933Z,54.70
2023-02-06T01:08:48.002Z,57.00
2023-02-06T01:11:35.441Z,55.10
2023-02-06T01:14:22.108Z,55.10
2023-02-06T01:17:10.345Z,58.00
2023-02-06T01:19:57.430Z,54.50
2023-02-06T01:22:44.066Z,56.40
2023-02-06T01:25:30.816Z,54.20
2023-02-06T01:28:17.433Z,55.80
2023-02-06T01:31:15.050Z,56.10
2023-02-06T01:34:01.613Z,58.10
2023-02-06T01:36:48.160Z,56.90
2023-02-06T01:39:34.593Z,56.70
2023-02-06T01:42:21.074Z,61.20
2023-02-06T01:45:42.206Z,57.00
2023-02-06T01:48:37.962Z,56.80
2023-02-06T01:51:26.892Z,60.00
2023-02-06T01:54:14.556Z,57.20
2023-02-06T01:57:06.651Z,59.30
2023-02-06T01:59:57.879Z,56.30
2023-02-06T02:02:49.307Z,59.40
2023-02-06T02:05:36.364Z,58.10
2023-02-06T02:08:30.678Z,59.90
2023-02-06T02:11:43.593Z,60.30
2023-02-06T02:14:30.540Z,59.30
2023-02-06T02:17:47.916Z,57.70
2023-02-06T02:20:54.073Z,60.70
2023-02-06T02:23:58.607Z,67.30
2023-02-06T02:27:16.901Z,64.90
2023-02-06T02:30:28.099Z,64.20
2023-02-06T02:33:39.629Z,66.80
2023-02-06T02:36:27.766Z,62.90
2023-02-06T02:39:35.864Z,65.20
2023-02-06T02:43:09.138Z,65.40
2023-02-06T02:46:04.350Z,59.90
2023-02-06T02:48:54.837Z,61.20
2023-02-06T02:51:42.060Z,59.40
2023-02-06T02:54:28.737Z,63.00
2023-02-06T02:57:24.147Z,60.60
2023-02-06T03:00:11.555Z,62.00
2023-02-06T03:02:58.906Z,61.30
2023-02-06T03:06:00.582Z,63.30
2023-02-06T03:08:54.857Z,63.80
2023-02-06T03:11:47.016Z,65.40
2023-02-06T03:14:47.711Z,64.80
2023-02-06T03:17:44.703Z,67.10
2023-02-06T03:20:32.791Z,62.10
2023-02-06T03:23:24.913Z,62.00
2023-02-06T03:26:18.256Z,63.90
2023-02-06T03:29:09.376Z,65.00
2023-02-06T03:32:00.496Z,63.00
2023-02-06T03:35:12.960Z,64.20
2023-02-06T03:37:59.726Z,59.90
2023-02-06T03:40:48.100Z,62.60
2023-02-06T03:43:34.788Z,66.30
2023-02-06T03:46:23.813Z,66.40
2023-02-06T03:49:13.697Z,63.90
2023-02-06T03:52:09.125Z,62.00
2023-02-06T03:55:04.892Z,67.30
2023-02-06T03:57:58.610Z,61.80
2023-02-06T04:00:46.920Z,64.50
2023-02-06T04:03:33.901Z,62.70
2023-02-06T04:06:20.401Z,65.10
2023-02-06T04:09:06.951Z,62.80
2023-02-06T04:11:53.552Z,63.90
2023-02-06T04:14:40.005Z,61.70
2023-02-06T04:17:43.115Z,61.70
2023-02-06T04:20:33.258Z,65.50
2023-02-06T04:23:20.570Z,62.80
2023-02-06T04:26:07.361Z,64.60
2023-02-06T04:28:54.029Z,64.50
2023-02-06T04:31:41.143Z,68.20
2023-02-06T04:34:35.217Z,63.20
2023-02-06T04:37:21.689Z,64.70
2023-02-06T04:40:08.789Z,62.30
2023-02-06T04:42:55.153Z,63.10
2023-02-06T04:45:41.988Z,65.20
2023-02-06T04:48:28.271Z,72.80
2023-02-06T04:51:14.831Z,64.60
2023-02-06T04:54:01.716Z,66.50
2023-02-06T04:56:48.372Z,64.20
2023-02-06T04:59:35.045Z,64.30
2023-02-06T05:02:21.429Z,65.90
2023-02-06T05:05:09.113Z,65.60
2023-02-06T05:07:55.469Z,62.90
2023-02-06T05:10:41.696Z,62.10
2023-02-06T05:13:28.537Z,63.70
2023-02-06T05:16:16.951Z,60.90
2023-02-06T05:19:03.533Z,66.50
2023-02-06T05:21:49.990Z,62.20
2023-02-06T05:24:36.238Z,66.20
2023-02-06T05:27:22.778Z,68.20
2023-02-06T05:30:10.761Z,64.80
2023-02-06T05:32:58.459Z,65.80
2023-02-06T05:35:45.230Z,65.30
2023-02-06T05:38:31.449Z,70.60
2023-02-06T05:41:18.788Z,67.60
2023-02-06T05:44:05.449Z,67.60
2023-02-06T05:46:52.110Z,71.00
2023-02-06T05:49:38.716Z,68.40
2023-02-06T05:52:25.033Z,71.00
2023-02-06T05:55:12.968Z,73.30
2023-02-06T05:57:59.307Z,76.10
2023-02-06T06:00:45.790Z,74.50
2023-02-06T06:03:33.403Z,73.10
2023-02-06T06:06:20.002Z,78.10
2023-02-06T06:09:06.712Z,82.60
2023-02-06T06:11:53.053Z,71.70
2023-02-06T06:14:39.550Z,80.60
2023-02-06T06:17:26.281Z,79.70
2023-02-06T06:20:12.886Z,79.80
2023-02-06T06:22:59.616Z,82.60
2023-02-06T06:25:47.881Z,77.00
2023-02-06T06:28:36.087Z,79.00
2023-02-06T06:31:22.480Z,77.10
2023-02-06T06:34:09.019Z,82.40
2023-02-06T06:36:55.649Z,75.50
2023-02-06T06:39:42.004Z,76.70
2023-02-06T06:42:28.742Z,79.50
2023-02-06T06:45:15.064Z,80.80
2023-02-06T06:48:01.698Z,77.60
2023-02-06T06:50:50.164Z,83.00
2023-02-06T06:53:41.451Z,80.80
2023-02-06T06:56:28.336Z,77.30
2023-02-06T06:59:14.498Z,79.00
2023-02-06T07:02:01.007Z,76.10
2023-02-06T07:04:47.174Z,77.50
2023-02-06T07:07:33.542Z,74.40
2023-02-06T07:10:20.278Z,71.30
2023-02-06T07:13:06.950Z,74.00
2023-02-06T07:15:53.462Z,71.30
2023-02-06T07:18:41.345Z,69.30
2023-02-06T07:21:27.909Z,72.30
2023-02-06T07:24:14.425Z,67.40
2023-02-06T07:27:01.192Z,63.60
2023-02-06T07:29:47.635Z,70.00
2023-02-06T07:32:37.013Z,73.00
2023-02-06T07:35:23.720Z,69.60
2023-02-06T07:38:10.328Z,65.70
2023-02-06T07:41:01.604Z,64.50
2023-02-06T07:43:48.145Z,64.80
2023-02-06T07:46:34.738Z,64.20
2023-02-06T07:49:21.525Z,64.70
2023-02-06T07:52:08.886Z,64.80
2023-02-06T07:54:55.372Z,66.30
2023-02-06T07:57:43.734Z,63.30
2023-02-06T08:00:32.398Z,65.80
2023-02-06T08:03:19.281Z,65.70
2023-02-06T08:06:10.515Z,60.20
2023-02-06T08:08:57.711Z,57.10
2023-02-06T08:11:44.735Z,59.00
2023-02-06T08:14:31.708Z,56.20
2023-02-06T08:17:19.829Z,59.90
2023-02-06T08:20:06.496Z,60.50
2023-02-06T08:22:55.313Z,54.20
2023-02-06T08:25:41.679Z,52.10
2023-02-06T08:28:28.362Z,51.00
2023-02-06T08:31:20.020Z,53.40
2023-02-06T08:34:08.875Z,49.10
2023-02-06T08:36:55.321Z,48.70
2023-02-06T08:39:41.954Z,47.90
2023-02-06T08:42:28.550Z,46.30
2023-02-06T08:45:14.943Z,47.90
2023-02-06T08:48:01.440Z,43.00
2023-02-06T08:50:48.034Z,42.70
2023-02-06T08:53:34.908Z,42.50
2023-02-06T08:56:21.590Z,41.30
2023-02-06T08:59:08.485Z,39.30
2023-02-06T09:01:55.379Z,41.50
2023-02-06T09:04:42.842Z,42.90
2023-02-06T09:07:31.381Z,38.70
2023-02-06T09:10:27.177Z,40.40
2023-02-06T09:13:14.491Z,36.60
2023-02-06T09:16:00.791Z,35.70
2023-02-06T09:18:48.791Z,40.20
2023-02-06T09:21:35.924Z,35.90
2023-02-06T09:24:22.481Z,34.20
2023-02-06T09:27:09.226Z,35.70
2023-02-06T09:29:55.872Z,35.80
2023-02-06T09:32:43.374Z,35.80
2023-02-06T09:35:29.737Z,36.20
2023-02-06T09:38:16.192Z,37.90
2023-02-06T09:41:11.617Z,36.30
2023-02-06T09:44:00.760Z,36.90
2023-02-06T09:46:57.817Z,36.30
2023-02-06T09:49:51.831Z,33.80
2023-02-06T09:53:10.645Z,35.50
2023-02-06T09:56:21.454Z,32.10
2023-02-06T09:59:19.512Z,31.70
2023-02-06T10:02:18.587Z,33.20
2023-02-06T10:05:23.926Z,35.40
2023-02-06T10:08:22.304Z,30.60
2023-02-06T10:11:19.722Z,31.40
2023-02-06T10:14:19.226Z,31.20
2023-02-06T10:17:24.347Z,29.60
2023-02-06T10:20:16.966Z,30.00
2023-02-06T10:23:17.810Z,29.10
2023-02-06T10:26:18.935Z,27.70
2023-02-06T10:29:09.842Z,27.70
2023-02-06T10:32:01.692Z,28.10
2023-02-06T10:35:10.464Z,26.90
2023-02-06T10:38:16.068Z,30.00
2023-02-06T10:41:03.490Z,27.20
2023-02-06T10:44:02.264Z,31.00
2023-02-06T10:46:51.503Z,24.80
2023-02-06T10:49:43.961Z,24.40
2023-02-06T10:52:35.285Z,23.90
2023-02-06T10:55:36.398Z,19.00
2023-02-06T10:58:33.442Z,23.80
2023-02-06T11:01:26.467Z,24.80
2023-02-06T11:04:32.714Z,19.50
2023-02-06T11:07:27.975Z,22.00
2023-02-06T11:10:18.335Z,23.00
2023-02-06T11:13:34.404Z,20.80
2023-02-06T11:16:26.277Z,19.70
2023-02-06T11:19:27.990Z,20.40
2023-02-06T11:22:16.481Z,21.20
2023-02-06T11:25:11.349Z,20.90
2023-02-06T11:28:00.295Z,20.90
2023-02-06T11:31:00.515Z,18.70
2023-02-06T11:33:57.275Z,21.20
2023-02-06T11:36:45.493Z,18.80
2023-02-06T11:39:35.704Z,21.20
2023-02-06T11:42:25.086Z,27.50
2023-02-06T11:45:28.128Z,28.60
2023-02-06T11:48:41.539Z,30.70
2023-02-06T11:51:48.910Z,28.80
2023-02-06T11:54:35.824Z,27.70
2023-02-06T11:57:25.428Z,32.10
2023-02-06T12:00:23.882Z,35.20
2023-02-06T12:03:33.171Z,34.30
2023-02-06T12:06:38.261Z,36.10
2023-02-06T12:09:24.986Z,35.90
2023-02-06T12:12:28.838Z,39.40
2023-02-06T12:15:47.885Z,37.60
2023-02-06T12:18:44.463Z,35.60
2023-02-06T12:21:45.031Z,33.80
2023-02-06T12:24:45.388Z,31.30
2023-02-06T12:27:39.970Z,34.10
2023-02-06T12:30:37.996Z,31.70
2023-02-06T12:33:36.868Z,30.70
2023-02-06T12:36:30.616Z,33.20
2023-02-06T12:39:21.198Z,31.50
2023-02-06T12:42:32.518Z,31.40
2023-02-06T12:45:31.893Z,34.00
2023-02-06T12:48:23.466Z,32.10
2023-02-06T12:51:22.317Z,32.20
2023-02-06T12:54:20.409Z,32.70
2023-02-06T12:57:16.114Z,32.00
2023-02-06T13:00:41.109Z,25.80
2023-02-06T13:03:31.343Z,26.60
2023-02-06T13:06:25.019Z,28.10
2023-02-06T13:09:25.116Z,30.10
2023-02-06T13:12:23.715Z,27.60
2023-02-06T13:15:22.827Z,28.40
2023-02-06T13:18:35.344Z,26.90
2023-02-06T13:21:24.216Z,27.70
2023-02-06T13:24:17.066Z,26.90
2023-02-06T13:27:09.940Z,29.20
2023-02-06T13:29:56.344Z,29.00
2023-02-06T13:32:46.261Z,28.50
2023-02-06T13:35:32.856Z,27.50
2023-02-06T13:38:22.704Z,24.80
2023-02-06T13:41:15.496Z,24.10
2023-02-06T13:44:30.113Z,25.60
2023-02-06T13:47:45.104Z,27.00
2023-02-06T13:51:10.828Z,25.60
2023-02-06T13:54:14.662Z,24.50
2023-02-06T13:57:28.745Z,24.90
2023-02-06T14:00:24.643Z,26.60
2023-02-06T14:03:30.731Z,23.90
2023-02-06T14:06:31.381Z,27.50
2023-02-06T14:09:43.887Z,26.80
2023-02-06T14:12:39.395Z,27.90
2023-02-06T14:15:40.062Z,25.00
2023-02-06T14:18:45.782Z,24.10
2023-02-06T14:22:05.012Z,27.20
2023-02-06T14:25:16.274Z,25.50
2023-02-06T14:28:24.546Z,25.80
2023-02-06T14:31:35.545Z,29.00
2023-02-06T14:34:34.875Z,30.20
2023-02-06T14:37:35.620Z,27.20
2023-02-06T14:40:29.924Z,27.20
2023-02-06T14:43:20.800Z,28.80
2023-02-06T14:46:12.652Z,27.80
2023-02-06T14:49:00.313Z,26.00
2023-02-06T14:51:53.171Z,27.80
2023-02-06T14:54:40.213Z,25.80
2023-02-06T14:57:31.958Z,27.80
2023-02-06T15:00:20.202Z,30.00
2023-02-06T15:03:23.386Z,30.50
2023-02-06T15:06:13.926Z,33.40
2023-02-06T15:09:01.486Z,35.60
2023-02-06T15:11:54.170Z,36.70
2023-02-06T15:14:51.923Z,38.60
2023-02-06T15:17:39.102Z,41.70
2023-02-06T15:20:35.225Z,46.00
2023-02-06T15:23:42.265Z,46.40
2023-02-06T15:26:37.901Z,45.90
2023-02-06T15:29:26.919Z,47.30
2023-02-06T15:32:39.050Z,48.90
2023-02-06T15:35:35.087Z,49.80
2023-02-06T15:38:24.325Z,49.70
2023-02-06T15:41:13.040Z,51.40
2023-02-06T15:44:12.258Z,53.70
2023-02-06T15:47:02.708Z,54.70
2023-02-06T15:49:51.139Z,56.70
2023-02-06T15:52:42.959Z,55.70
2023-02-06T15:55:33.965Z,58.70
2023-02-06T15:58:20.672Z,58.30
2023-02-06T16:01:16.381Z,56.40
2023-02-06T16:04:10.060Z,59.90
2023-02-06T16:07:11.772Z,62.60
2023-02-06T16:10:10.329Z,65.00
2023-02-06T16:13:00.166Z,63.60
2023-02-06T16:16:10.236Z,68.00
2023-02-06T16:18:58.703Z,67.40
2023-02-06T16:21:46.879Z,71.50
2023-02-06T16:24:34.480Z,74.20
2023-02-06T16:27:27.828Z,77.20
2023-02-06T16:30:24.335Z,81.80
2023-02-06T16:33:39.849Z,84.30
2023-02-06T16:36:26.777Z,84.30
2023-02-06T16:39:13.729Z,93.80
2023-02-06T16:42:00.346Z,92.80
2023-02-06T16:44:53.837Z,98.20
2023-02-06T16:47:41.810Z,99.60
2023-02-06T16:50:29.268Z,97.80
2023-02-06T16:53:24.621Z,98.30
2023-02-06T16:56:14.114Z,101.40
2023-02-06T16:59:01.545Z,97.40
2023-02-06T17:01:49.676Z,101.90
2023-02-06T17:04:37.152Z,96.30
2023-02-06T17:07:28.055Z,101.60
2023-02-06T17:10:22.394Z,103.30
2023-02-06T17:13:15.526Z,100.30
2023-02-06T17:16:03.638Z,94.60
2023-02-06T17:18:50.985Z,99.80
2023-02-06T17:21:38.502Z,99.00
2023-02-06T17:24:26.287Z,98.10
2023-02-06T17:27:20.363Z,96.50
2023-02-06T17:30:08.303Z,95.50
2023-02-06T17:32:57.108Z,94.30
2023-02-06T17:35:47.598Z,91.70
2023-02-06T17:38:34.886Z,90.80
2023-02-06T17:41:22.439Z,90.50
2023-02-06T17:44:09.638Z,91.30
2023-02-06T17:46:57.152Z,87.00
2023-02-06T17:49:44.957Z,91.10
2023-02-06T17:52:31.632Z,90.80
2023-02-06T17:55:19.307Z,93.20
2023-02-06T17:58:07.214Z,94.50
2023-02-06T18:00:54.306Z,93.80
2023-02-06T18:03:41.885Z,93.40
2023-02-06T18:06:34.037Z,94.30
2023-02-06T18:09:20.901Z,93.20
2023-02-06T18:12:08.497Z,92.90
2023-02-06T18:14:56.453Z,98.60
2023-02-06T18:17:44.173Z,92.80
2023-02-06T18:20:31.882Z,98.30
2023-02-06T18:23:19.862Z,95.60
2023-02-06T18:26:09.771Z,97.30
2023-02-06T18:28:57.702Z,97.70
2023-02-06T18:31:46.179Z,98.50
2023-02-06T18:34:34.384Z,95.30
2023-02-06T18:37:22.189Z,92.90
2023-02-06T18:40:10.754Z,95.10
2023-02-06T18:42:58.506Z,94.70
2023-02-06T18:45:46.121Z,96.50
2023-02-06T18:48:33.695Z,99.40
2023-02-06T18:51:21.306Z,98.60
2023-02-06T18:54:10.193Z,95.90
2023-02-06T18:56:57.375Z,96.90
2023-02-06T18:59:44.887Z,95.60
2023-02-06T19:02:32.303Z,95.40
2023-02-06T19:05:21.040Z,99.70
2023-02-06T19:08:09.054Z,98.40
2023-02-06T19:10:57.702Z,92.90
2023-02-06T19:13:46.226Z,91.10
2023-02-06T19:16:35.990Z,87.30
2023-02-06T19:19:23.472Z,85.50
2023-02-06T19:22:11.004Z,81.60
2023-02-06T19:24:58.906Z,82.00
2023-02-06T19:27:46.106Z,82.40
2023-02-06T19:30:33.525Z,78.20
2023-02-06T19:33:21.083Z,75.30
2023-02-06T19:36:10.918Z,72.50
2023-02-06T19:39:01.097Z,71.90
2023-02-06T19:41:48.790Z,69.70
2023-02-06T19:44:37.003Z,71.80
2023-02-06T19:47:24.464Z,67.30
2023-02-06T19:50:14.145Z,70.10
2023-02-06T19:53:01.664Z,71.00
2023-02-06T19:55:49.873Z,69.10
2023-02-06T19:58:37.183Z,67.10
2023-02-06T20:01:26.029Z,76.90
2023-02-06T20:04:14.916Z,72.00
2023-02-06T20:07:04.200Z,68.50
2023-02-06T20:09:52.868Z,72.90
2023-02-06T20:12:39.905Z,69.10
2023-02-06T20:15:29.624Z,72.70
2023-02-06T20:18:16.878Z,69.00
2023-02-06T20:21:03.828Z,67.00
2023-02-06T20:23:50.959Z,66.20
2023-02-06T20:26:41.069Z,66.50
2023-02-06T20:29:36.430Z,64.40
2023-02-06T20:32:24.562Z,61.10
2023-02-06T20:35:11.356Z,58.10
2023-02-06T20:37:58.523Z,59.00
2023-02-06T20:40:50.904Z,58.30
2023-02-06T20:43:37.556Z,56.80
2023-02-06T20:46:29.847Z,58.40
2023-02-06T20:49:19.981Z,58.10
2023-02-06T20:52:06.949Z,61.20
2023-02-06T20:55:09.892Z,58.10
2023-02-06T20:57:56.526Z,59.90
2023-02-06T21:00:43.548Z,60.10
2023-02-06T21:03:30.531Z,59.20
2023-02-06T21:06:17.172Z,61.50
2023-02-06T21:09:05.541Z,57.50
2023-02-06T21:11:51.913Z,59.10
2023-02-06T21:14:38.346Z,61.50
2023-02-06T21:17:24.596Z,57.70
2023-02-06T21:20:11.156Z,58.20
2023-02-06T21:22:57.659Z,59.20
2023-02-06T21:25:51.618Z,61.70
2023-02-06T21:28:39.437Z,59.10
2023-02-06T21:31:36.049Z,61.00
2023-02-06T21:34:26.028Z,58.50
2023-02-06T21:37:12.860Z,61.90
2023-02-06T21:39:59.309Z,62.80
2023-02-06T21:42:45.350Z,61.70
2023-02-06T21:45:31.712Z,59.10
2023-02-06T21:48:18.126Z,65.60
2023-02-06T21:51:17.361Z,61.90
2023-02-06T21:54:04.112Z,61.40
2023-02-06T21:56:50.732Z,59.20
2023-02-06T21:59:38.428Z,60.90
2023-02-06T22:02:25.251Z,60.40
2023-02-06T22:05:11.702Z,57.60
2023-02-06T22:07:58.951Z,58.60
2023-02-06T22:10:45.386Z,59.50
2023-02-06T22:13:31.529Z,68.50
2023-02-06T22:16:22.245Z,74.50
2023-02-06T22:19:10.397Z,76.20
2023-02-06T22:21:57.016Z,77.80
2023-02-06T22:24:46.026Z,77.40
2023-02-06T22:27:33.209Z,79.50
2023-02-06T22:30:20.587Z,77.00
2023-02-06T22:33:06.899Z,75.70
2023-02-06T22:35:53.283Z,73.40
2023-02-06T22:38:41.321Z,71.70
2023-02-06T22:41:29.135Z,67.70
2023-02-06T22:44:17.711Z,59.40
2023-02-06T22:47:04.424Z,67.70
2023-02-06T22:49:52.680Z,68.80
2023-02-06T22:53:02.039Z,64.00
2023-02-06T22:56:06.845Z,65.50
2023-02-06T22:58:54.866Z,67.00
2023-02-06T23:01:44.764Z,69.80
2023-02-06T23:04:36.106Z,65.50
2023-02-06T23:07:22.722Z,60.70
2023-02-06T23:10:09.608Z,63.10
2023-02-06T23:12:56.300Z,65.20
2023-02-06T23:15:42.886Z,62.70
2023-02-06T23:18:29.729Z,61.60
2023-02-06T23:21:17.701Z,63.30
2023-02-06T23:24:05.930Z,57.90
2023-02-06T23:26:53.686Z,58.70
2023-02-06T23:29:40.061Z,57.40
2023-02-06T23:32:26.781Z,57.50
2023-02-06T23:35:13.426Z,56.00
2023-02-06T23:37:59.783Z,53.80
2023-02-06T23:40:47.574Z,57.10
2023-02-06T23:43:34.711Z,55.50
2023-02-06T23:46:22.289Z,56.00
2023-02-06T23:49:09.213Z,55.90
2023-02-06T23:51:55.869Z,57.20
2023-02-06T23:54:42.123Z,59.60
2023-02-06T23:57:28.697Z,57.50
